Portada
METAR-TAF:

METAR-TAF

Aeroports :

Pyongyang, Corea del Nord

latitud: 39-02N, longitud: 125-47E, altitud: 36 m

METAR: manca

Hora: 19:20 (10:20 UTC)

Pronòstic

L'informe es va fer fa 5 hores i 40 minuts, a les 04:40 UTC
Pronòstic vàlid del 08 a les 06 UTC al 09 a les 06 UTC
Vent 16 kt del Nord
Visibilitat 10 km o més
sense núvols per sota de 1500 mi sense presència de cumulonimbus.
Evolucionant progressivament
l' 08 a les 11 UTC al 08 a les 13 UTC
Vent 8 kt del Nord/Nord-Oest

TAF: ZKPY 080440Z 0806/0906 36008MPS CAVOK TX13/0806Z TN02/0822Z BECMG 0811/0813 34004MPS

Observacions i pronòstics meteorològics de més de 4000 aeroports (METAR i TAF).

Les estacions disponibles són els punts grocs i vermells al mapa.

Posi el ratolí al punt desitjat per veure el nom de l'estació.

Feu clic per veure les observacions i els pronòstics meteorològics.

Per canviar el mapa: feu clic els botons verds amb una creu de color negre per apropar; al botó verd amb un guió per allunyar la imatge; o en les fletxes verdes per a mapes adjacents.


METAR-TAF: